sensor_id;sensor_type;location;lat;lon;timestamp;pressure;altitude;pressure_sealevel;temperature;humidity
21240;BME280;10778;48.962;9.018;2022-07-06T00:01:51;99666.72;;;15.88;82.16
21240;BME280;10778;48.962;9.018;2022-07-06T00:04:18;99670.38;;;15.87;81.56
21240;BME280;10778;48.962;9.018;2022-07-06T00:06:44;99662.13;;;15.90;80.90
21240;BME280;10778;48.962;9.018;2022-07-06T00:09:10;99664.22;;;15.87;81.53
21240;BME280;10778;48.962;9.018;2022-07-06T00:11:36;99667.59;;;15.89;81.03
21240;BME280;10778;48.962;9.018;2022-07-06T00:14:02;99664.56;;;15.84;81.79
21240;BME280;10778;48.962;9.018;2022-07-06T00:16:29;99664.66;;;15.74;82.12
21240;BME280;10778;48.962;9.018;2022-07-06T00:18:55;99659.38;;;15.74;81.72
21240;BME280;10778;48.962;9.018;2022-07-06T00:21:21;99664.81;;;15.72;82.44
21240;BME280;10778;48.962;9.018;2022-07-06T00:23:47;99658.28;;;15.58;82.91
21240;BME280;10778;48.962;9.018;2022-07-06T00:26:13;99661.59;;;15.60;82.77
21240;BME280;10778;48.962;9.018;2022-07-06T00:28:39;99662.44;;;15.61;82.32
21240;BME280;10778;48.962;9.018;2022-07-06T00:31:05;99667.44;;;15.64;82.16
21240;BME280;10778;48.962;9.018;2022-07-06T00:33:31;99658.03;;;15.70;82.43
21240;BME280;10778;48.962;9.018;2022-07-06T00:35:57;99663.00;;;15.73;81.66
21240;BME280;10778;48.962;9.018;2022-07-06T00:38:24;99663.78;;;15.65;83.71
21240;BME280;10778;48.962;9.018;2022-07-06T00:40:50;99669.88;;;15.57;82.55
21240;BME280;10778;48.962;9.018;2022-07-06T00:43:16;99677.31;;;15.54;82.97
21240;BME280;10778;48.962;9.018;2022-07-06T00:45:42;99672.53;;;15.57;81.46
21240;BME280;10778;48.962;9.018;2022-07-06T00:48:09;99673.16;;;15.51;81.58
21240;BME280;10778;48.962;9.018;2022-07-06T00:50:36;99666.44;;;15.65;81.71
21240;BME280;10778;48.962;9.018;2022-07-06T00:53:04;99676.69;;;15.60;82.35
21240;BME280;10778;48.962;9.018;2022-07-06T00:55:33;99671.50;;;15.50;82.95
21240;BME280;10778;48.962;9.018;2022-07-06T00:58:01;99671.56;;;15.40;82.74
21240;BME280;10778;48.962;9.018;2022-07-06T01:00:28;99669.88;;;15.31;83.97
21240;BME280;10778;48.962;9.018;2022-07-06T01:02:55;99671.56;;;15.14;83.94
21240;BME280;10778;48.962;9.018;2022-07-06T01:05:21;99672.13;;;14.99;85.44
21240;BME280;10778;48.962;9.018;2022-07-06T01:07:49;99673.03;;;14.90;85.32
21240;BME280;10778;48.962;9.018;2022-07-06T01:10:17;99669.16;;;14.84;85.17
21240;BME280;10778;48.962;9.018;2022-07-06T01:12:44;99673.25;;;14.78;85.49
21240;BME280;10778;48.962;9.018;2022-07-06T01:15:20;99669.59;;;14.79;84.98
21240;BME280;10778;48.962;9.018;2022-07-06T01:17:46;99670.00;;;14.85;84.73
21240;BME280;10778;48.962;9.018;2022-07-06T01:22:40;99662.56;;;14.70;86.19
21240;BME280;10778;48.962;9.018;2022-07-06T01:25:07;99667.75;;;14.62;85.89
21240;BME280;10778;48.962;9.018;2022-07-06T01:27:37;99660.34;;;14.65;86.07
21240;BME280;10778;48.962;9.018;2022-07-06T01:30:09;99651.28;;;14.68;86.55
21240;BME280;10778;48.962;9.018;2022-07-06T01:32:36;99652.03;;;14.60;86.73
21240;BME280;10778;48.962;9.018;2022-07-06T01:35:22;99647.31;;;14.54;87.03
21240;BME280;10778;48.962;9.018;2022-07-06T01:37:49;99653.47;;;14.55;87.23
21240;BME280;10778;48.962;9.018;2022-07-06T01:40:15;99657.78;;;14.56;86.00
21240;BME280;10778;48.962;9.018;2022-07-06T01:42:41;99648.78;;;14.48;86.24
21240;BME280;10778;48.962;9.018;2022-07-06T01:45:08;99655.06;;;14.47;86.04
21240;BME280;10778;48.962;9.018;2022-07-06T01:47:35;99657.69;;;14.47;85.97
21240;BME280;10778;48.962;9.018;2022-07-06T01:50:05;99655.44;;;14.53;86.34
21240;BME280;10778;48.962;9.018;2022-07-06T01:52:33;99649.97;;;14.54;85.27
21240;BME280;10778;48.962;9.018;2022-07-06T01:55:01;99652.63;;;14.54;86.23
21240;BME280;10778;48.962;9.018;2022-07-06T01:57:29;99657.78;;;14.56;85.08
21240;BME280;10778;48.962;9.018;2022-07-06T01:59:55;99657.91;;;14.54;83.40
21240;BME280;10778;48.962;9.018;2022-07-06T02:02:21;99658.75;;;14.55;84.08
21240;BME280;10778;48.962;9.018;2022-07-06T02:04:47;99662.94;;;14.57;84.31
21240;BME280;10778;48.962;9.018;2022-07-06T02:07:13;99668.59;;;14.62;83.95
21240;BME280;10778;48.962;9.018;2022-07-06T02:09:40;99674.66;;;14.55;85.60
21240;BME280;10778;48.962;9.018;2022-07-06T02:12:06;99674.03;;;14.43;85.97
21240;BME280;10778;48.962;9.018;2022-07-06T02:14:32;99676.00;;;14.41;86.39
21240;BME280;10778;48.962;9.018;2022-07-06T02:16:58;99675.59;;;14.35;84.45
21240;BME280;10778;48.962;9.018;2022-07-06T02:19:24;99676.25;;;14.37;84.30
21240;BME280;10778;48.962;9.018;2022-07-06T02:21:50;99673.34;;;14.41;83.81
21240;BME280;10778;48.962;9.018;2022-07-06T02:24:16;99680.44;;;14.40;84.29
21240;BME280;10778;48.962;9.018;2022-07-06T02:26:42;99675.75;;;14.34;84.29
21240;BME280;10778;48.962;9.018;2022-07-06T02:29:09;99666.28;;;14.31;83.77
21240;BME280;10778;48.962;9.018;2022-07-06T02:31:34;99668.19;;;14.39;83.08
21240;BME280;10778;48.962;9.018;2022-07-06T02:34:01;99664.34;;;14.51;81.78
21240;BME280;10778;48.962;9.018;2022-07-06T02:36:26;99666.31;;;14.49;82.03
21240;BME280;10778;48.962;9.018;2022-07-06T02:38:53;99665.19;;;14.52;81.74
21240;BME280;10778;48.962;9.018;2022-07-06T02:41:19;99661.78;;;14.60;81.58
21240;BME280;10778;48.962;9.018;2022-07-06T02:43:45;99652.16;;;14.59;81.35
21240;BME280;10778;48.962;9.018;2022-07-06T02:46:11;99667.16;;;14.68;80.82
21240;BME280;10778;48.962;9.018;2022-07-06T02:48:39;99666.50;;;14.66;81.31
21240;BME280;10778;48.962;9.018;2022-07-06T02:51:06;99669.59;;;14.61;81.63
21240;BME280;10778;48.962;9.018;2022-07-06T02:53:32;99677.16;;;14.56;81.64
21240;BME280;10778;48.962;9.018;2022-07-06T02:55:58;99675.31;;;14.57;81.84
21240;BME280;10778;48.962;9.018;2022-07-06T02:58:24;99684.13;;;14.57;81.79
21240;BME280;10778;48.962;9.018;2022-07-06T03:00:51;99681.66;;;14.46;82.85
21240;BME280;10778;48.962;9.018;2022-07-06T03:03:18;99696.09;;;14.33;85.51
21240;BME280;10778;48.962;9.018;2022-07-06T03:05:44;99684.44;;;14.26;83.50
21240;BME280;10778;48.962;9.018;2022-07-06T03:08:12;99694.72;;;14.29;83.70
21240;BME280;10778;48.962;9.018;2022-07-06T03:10:38;99688.06;;;14.25;84.46
21240;BME280;10778;48.962;9.018;2022-07-06T03:13:04;99689.72;;;14.26;84.75
21240;BME280;10778;48.962;9.018;2022-07-06T03:15:31;99693.50;;;14.23;84.17
21240;BME280;10778;48.962;9.018;2022-07-06T03:17:58;99697.06;;;14.32;83.42
21240;BME280;10778;48.962;9.018;2022-07-06T03:20:24;99700.88;;;14.20;84.24
21240;BME280;10778;48.962;9.018;2022-07-06T03:22:51;99707.31;;;14.17;84.32
21240;BME280;10778;48.962;9.018;2022-07-06T03:25:18;99709.28;;;14.15;84.08
21240;BME280;10778;48.962;9.018;2022-07-06T03:27:44;99710.72;;;14.28;84.50
21240;BME280;10778;48.962;9.018;2022-07-06T03:30:13;99710.94;;;14.16;85.08
21240;BME280;10778;48.962;9.018;2022-07-06T03:32:40;99705.00;;;14.04;85.95
21240;BME280;10778;48.962;9.018;2022-07-06T03:35:07;99706.69;;;14.05;85.67
21240;BME280;10778;48.962;9.018;2022-07-06T03:37:33;99703.56;;;14.10;84.92
21240;BME280;10778;48.962;9.018;2022-07-06T03:39:59;99710.81;;;14.08;85.77
21240;BME280;10778;48.962;9.018;2022-07-06T03:42:25;99707.50;;;14.06;85.82
21240;BME280;10778;48.962;9.018;2022-07-06T03:44:51;99712.78;;;14.06;85.62
21240;BME280;10778;48.962;9.018;2022-07-06T03:47:18;99709.72;;;14.11;85.02
21240;BME280;10778;48.962;9.018;2022-07-06T03:49:45;99721.97;;;14.12;85.70
21240;BME280;10778;48.962;9.018;2022-07-06T03:52:11;99718.09;;;14.06;85.70
21240;BME280;10778;48.962;9.018;2022-07-06T03:54:43;99715.38;;;14.16;85.64
21240;BME280;10778;48.962;9.018;2022-07-06T03:57:12;99716.13;;;14.08;85.50
21240;BME280;10778;48.962;9.018;2022-07-06T03:59:39;99715.25;;;14.17;85.68
21240;BME280;10778;48.962;9.018;2022-07-06T04:02:06;99716.75;;;14.20;85.60
21240;BME280;10778;48.962;9.018;2022-07-06T04:04:33;99714.56;;;14.15;85.85
21240;BME280;10778;48.962;9.018;2022-07-06T04:06:59;99710.47;;;14.31;85.26
21240;BME280;10778;48.962;9.018;2022-07-06T04:09:26;99719.34;;;14.40;86.12
21240;BME280;10778;48.962;9.018;2022-07-06T04:11:52;99723.09;;;14.37;85.44
21240;BME280;10778;48.962;9.018;2022-07-06T04:14:19;99731.66;;;14.49;85.31
21240;BME280;10778;48.962;9.018;2022-07-06T04:16:46;99735.72;;;14.43;85.40
21240;BME280;10778;48.962;9.018;2022-07-06T04:19:13;99731.97;;;14.46;85.62
21240;BME280;10778;48.962;9.018;2022-07-06T04:21:40;99737.81;;;14.49;85.77
21240;BME280;10778;48.962;9.018;2022-07-06T04:24:07;99732.47;;;14.59;84.76
21240;BME280;10778;48.962;9.018;2022-07-06T04:26:34;99730.31;;;14.91;85.54
21240;BME280;10778;48.962;9.018;2022-07-06T04:29:01;99728.47;;;15.72;88.20
21240;BME280;10778;48.962;9.018;2022-07-06T04:31:28;99732.91;;;15.63;82.04
21240;BME280;10778;48.962;9.018;2022-07-06T04:33:54;99731.25;;;15.62;82.00
21240;BME280;10778;48.962;9.018;2022-07-06T04:36:20;99728.34;;;15.74;80.23
21240;BME280;10778;48.962;9.018;2022-07-06T04:38:47;99738.94;;;15.92;79.72
21240;BME280;10778;48.962;9.018;2022-07-06T04:41:14;99742.03;;;16.14;81.44
21240;BME280;10778;48.962;9.018;2022-07-06T04:43:40;99750.06;;;15.96;81.24
21240;BME280;10778;48.962;9.018;2022-07-06T04:46:10;99746.88;;;16.18;81.27
21240;BME280;10778;48.962;9.018;2022-07-06T04:48:39;99746.03;;;16.18;80.13
21240;BME280;10778;48.962;9.018;2022-07-06T04:51:08;99749.41;;;16.28;79.69
21240;BME280;10778;48.962;9.018;2022-07-06T04:53:34;99746.25;;;15.98;79.94
21240;BME280;10778;48.962;9.018;2022-07-06T04:56:01;99742.03;;;16.14;79.41
21240;BME280;10778;48.962;9.018;2022-07-06T04:58:29;99749.63;;;16.09;78.87
21240;BME280;10778;48.962;9.018;2022-07-06T05:00:55;99752.88;;;16.29;79.23
21240;BME280;10778;48.962;9.018;2022-07-06T05:03:23;99748.53;;;16.71;77.86
21240;BME280;10778;48.962;9.018;2022-07-06T05:05:49;99752.78;;;16.47;78.09
21240;BME280;10778;48.962;9.018;2022-07-06T05:08:15;99751.38;;;16.69;76.73
21240;BME280;10778;48.962;9.018;2022-07-06T05:10:41;99752.16;;;17.21;76.54
21240;BME280;10778;48.962;9.018;2022-07-06T05:13:07;99753.31;;;17.27;75.66
21240;BME280;10778;48.962;9.018;2022-07-06T05:15:33;99755.22;;;16.91;76.77
21240;BME280;10778;48.962;9.018;2022-07-06T05:17:59;99756.59;;;16.96;75.25
21240;BME280;10778;48.962;9.018;2022-07-06T05:20:25;99763.78;;;17.03;75.96
21240;BME280;10778;48.962;9.018;2022-07-06T05:22:51;99760.63;;;17.41;75.23
21240;BME280;10778;48.962;9.018;2022-07-06T05:25:25;99767.94;;;17.23;75.75
21240;BME280;10778;48.962;9.018;2022-07-06T05:27:51;99764.28;;;16.64;77.66
21240;BME280;10778;48.962;9.018;2022-07-06T05:30:17;99770.84;;;16.35;78.50
21240;BME280;10778;48.962;9.018;2022-07-06T05:32:44;99768.97;;;16.27;79.19
21240;BME280;10778;48.962;9.018;2022-07-06T05:35:10;99769.38;;;16.06;78.79
21240;BME280;10778;48.962;9.018;2022-07-06T05:37:36;99767.38;;;16.08;78.96
21240;BME280;10778;48.962;9.018;2022-07-06T05:40:02;99770.59;;;16.55;78.15
21240;BME280;10778;48.962;9.018;2022-07-06T05:42:28;99778.25;;;16.66;77.06
21240;BME280;10778;48.962;9.018;2022-07-06T05:44:55;99772.06;;;16.57;78.24
21240;BME280;10778;48.962;9.018;2022-07-06T05:47:22;99773.34;;;16.96;77.10
21240;BME280;10778;48.962;9.018;2022-07-06T05:50:07;99770.69;;;16.96;76.99
21240;BME280;10778;48.962;9.018;2022-07-06T05:52:55;99772.25;;;17.57;74.61
21240;BME280;10778;48.962;9.018;2022-07-06T05:55:22;99774.53;;;18.01;73.51
21240;BME280;10778;48.962;9.018;2022-07-06T05:57:49;99770.41;;;17.82;73.40
21240;BME280;10778;48.962;9.018;2022-07-06T06:00:17;99769.44;;;17.75;74.38
21240;BME280;10778;48.962;9.018;2022-07-06T06:02:47;99771.75;;;17.70;73.35
21240;BME280;10778;48.962;9.018;2022-07-06T06:05:16;99761.56;;;17.98;71.42
21240;BME280;10778;48.962;9.018;2022-07-06T06:07:44;99770.38;;;18.24;72.46
21240;BME280;10778;48.962;9.018;2022-07-06T06:10:13;99770.22;;;18.00;71.62
21240;BME280;10778;48.962;9.018;2022-07-06T06:12:41;99769.88;;;18.12;72.07
21240;BME280;10778;48.962;9.018;2022-07-06T06:15:09;99775.06;;;17.80;72.83
21240;BME280;10778;48.962;9.018;2022-07-06T06:17:35;99779.41;;;17.81;72.99
21240;BME280;10778;48.962;9.018;2022-07-06T06:20:03;99770.75;;;17.71;72.79
21240;BME280;10778;48.962;9.018;2022-07-06T06:22:29;99775.22;;;18.03;72.71
21240;BME280;10778;48.962;9.018;2022-07-06T06:24:55;99773.25;;;17.72;72.38
21240;BME280;10778;48.962;9.018;2022-07-06T06:27:21;99782.38;;;17.95;72.63
21240;BME280;10778;48.962;9.018;2022-07-06T06:29:47;99783.38;;;18.02;73.18
21240;BME280;10778;48.962;9.018;2022-07-06T06:32:13;99777.56;;;17.98;73.50
21240;BME280;10778;48.962;9.018;2022-07-06T06:34:40;99783.78;;;18.39;72.51
21240;BME280;10778;48.962;9.018;2022-07-06T06:37:06;99786.16;;;19.28;69.49
21240;BME280;10778;48.962;9.018;2022-07-06T06:39:32;99790.78;;;19.35;69.47
21240;BME280;10778;48.962;9.018;2022-07-06T06:41:58;99783.97;;;18.29;72.24
21240;BME280;10778;48.962;9.018;2022-07-06T06:44:24;99786.38;;;17.90;72.20
21240;BME280;10778;48.962;9.018;2022-07-06T06:46:50;99789.72;;;18.09;72.04
21240;BME280;10778;48.962;9.018;2022-07-06T06:49:18;99784.88;;;18.53;70.75
21240;BME280;10778;48.962;9.018;2022-07-06T06:51:44;99780.59;;;19.76;66.97
21240;BME280;10778;48.962;9.018;2022-07-06T06:54:10;99785.56;;;19.80;67.12
21240;BME280;10778;48.962;9.018;2022-07-06T06:56:36;99786.44;;;19.95;65.54
21240;BME280;10778;48.962;9.018;2022-07-06T06:59:03;99781.94;;;20.26;64.70
21240;BME280;10778;48.962;9.018;2022-07-06T07:01:29;99773.19;;;20.17;65.41
21240;BME280;10778;48.962;9.018;2022-07-06T07:03:55;99782.94;;;20.55;64.48
21240;BME280;10778;48.962;9.018;2022-07-06T07:06:21;99771.53;;;20.01;66.51
21240;BME280;10778;48.962;9.018;2022-07-06T07:08:47;99773.94;;;20.11;66.91
21240;BME280;10778;48.962;9.018;2022-07-06T07:11:13;99771.97;;;20.35;64.94
21240;BME280;10778;48.962;9.018;2022-07-06T07:13:39;99775.16;;;20.60;64.34
21240;BME280;10778;48.962;9.018;2022-07-06T07:16:06;99780.00;;;20.04;65.37
21240;BME280;10778;48.962;9.018;2022-07-06T07:18:32;99776.38;;;19.82;66.04
21240;BME280;10778;48.962;9.018;2022-07-06T07:20:58;99784.63;;;19.72;66.34
21240;BME280;10778;48.962;9.018;2022-07-06T07:23:24;99782.22;;;20.16;65.22
21240;BME280;10778;48.962;9.018;2022-07-06T07:25:50;99782.63;;;19.51;65.48
21240;BME280;10778;48.962;9.018;2022-07-06T07:28:16;99782.59;;;19.74;66.38
21240;BME280;10778;48.962;9.018;2022-07-06T07:30:42;99775.13;;;20.38;64.29
21240;BME280;10778;48.962;9.018;2022-07-06T07:33:08;99771.94;;;20.65;64.80
21240;BME280;10778;48.962;9.018;2022-07-06T07:35:34;99771.75;;;20.66;64.63
21240;BME280;10778;48.962;9.018;2022-07-06T07:38:00;99770.28;;;20.64;63.87
21240;BME280;10778;48.962;9.018;2022-07-06T07:40:26;99767.16;;;20.60;63.77
21240;BME280;10778;48.962;9.018;2022-07-06T07:42:52;99773.41;;;20.82;62.59
21240;BME280;10778;48.962;9.018;2022-07-06T07:45:18;99765.09;;;21.36;61.00
21240;BME280;10778;48.962;9.018;2022-07-06T07:47:44;99768.41;;;21.16;62.72
21240;BME280;10778;48.962;9.018;2022-07-06T07:50:11;99764.47;;;20.75;62.84
21240;BME280;10778;48.962;9.018;2022-07-06T07:52:37;99772.28;;;20.92;62.72
21240;BME280;10778;48.962;9.018;2022-07-06T07:55:03;99766.47;;;20.88;62.46
21240;BME280;10778;48.962;9.018;2022-07-06T07:57:29;99757.81;;;20.71;62.29
21240;BME280;10778;48.962;9.018;2022-07-06T07:59:55;99756.63;;;20.73;62.14
21240;BME280;10778;48.962;9.018;2022-07-06T08:02:21;99761.97;;;20.73;62.11
21240;BME280;10778;48.962;9.018;2022-07-06T08:04:47;99765.22;;;21.06;61.59
21240;BME280;10778;48.962;9.018;2022-07-06T08:07:13;99768.69;;;21.50;60.56
21240;BME280;10778;48.962;9.018;2022-07-06T08:09:39;99770.34;;;21.72;60.10
21240;BME280;10778;48.962;9.018;2022-07-06T08:12:05;99763.34;;;22.00;59.90
21240;BME280;10778;48.962;9.018;2022-07-06T08:14:32;99759.06;;;22.12;58.48
21240;BME280;10778;48.962;9.018;2022-07-06T08:16:58;99765.47;;;21.83;59.88
21240;BME280;10778;48.962;9.018;2022-07-06T08:19:24;99755.47;;;21.98;59.53
21240;BME280;10778;48.962;9.018;2022-07-06T08:21:50;99749.53;;;21.68;58.56
21240;BME280;10778;48.962;9.018;2022-07-06T08:24:16;99755.16;;;22.15;58.85
21240;BME280;10778;48.962;9.018;2022-07-06T08:26:42;99753.19;;;22.30;59.21
21240;BME280;10778;48.962;9.018;2022-07-06T08:29:08;99761.88;;;21.69;60.13
21240;BME280;10778;48.962;9.018;2022-07-06T08:31:34;99759.59;;;22.36;58.18
21240;BME280;10778;48.962;9.018;2022-07-06T08:34:01;99756.19;;;22.14;58.33
21240;BME280;10778;48.962;9.018;2022-07-06T08:36:28;99759.06;;;22.48;58.26
21240;BME280;10778;48.962;9.018;2022-07-06T08:38:54;99760.22;;;22.87;57.41
21240;BME280;10778;48.962;9.018;2022-07-06T08:41:23;99768.19;;;22.60;57.52
21240;BME280;10778;48.962;9.018;2022-07-06T08:43:50;99762.72;;;23.02;56.52
21240;BME280;10778;48.962;9.018;2022-07-06T08:46:18;99754.44;;;22.90;55.63
21240;BME280;10778;48.962;9.018;2022-07-06T08:48:45;99753.22;;;22.99;56.58
21240;BME280;10778;48.962;9.018;2022-07-06T08:51:13;99758.56;;;22.86;56.98
21240;BME280;10778;48.962;9.018;2022-07-06T08:53:44;99760.59;;;22.84;57.41
21240;BME280;10778;48.962;9.018;2022-07-06T08:56:11;99764.00;;;22.51;57.26
21240;BME280;10778;48.962;9.018;2022-07-06T08:58:37;99761.06;;;22.45;57.57
21240;BME280;10778;48.962;9.018;2022-07-06T09:01:09;99755.50;;;23.16;56.78
21240;BME280;10778;48.962;9.018;2022-07-06T09:03:35;99764.22;;;23.32;56.28
21240;BME280;10778;48.962;9.018;2022-07-06T09:06:02;99762.41;;;23.46;55.97
21240;BME280;10778;48.962;9.018;2022-07-06T09:08:30;99770.94;;;22.80;57.83
21240;BME280;10778;48.962;9.018;2022-07-06T09:10:57;99765.19;;;22.97;58.24
21240;BME280;10778;48.962;9.018;2022-07-06T09:13:23;99769.00;;;23.36;57.07
21240;BME280;10778;48.962;9.018;2022-07-06T09:15:49;99776.56;;;23.19;57.78
21240;BME280;10778;48.962;9.018;2022-07-06T09:18:15;99777.06;;;23.63;56.24
21240;BME280;10778;48.962;9.018;2022-07-06T09:20:41;99774.94;;;23.25;57.41
21240;BME280;10778;48.962;9.018;2022-07-06T09:25:35;99772.72;;;23.42;58.00
21240;BME280;10778;48.962;9.018;2022-07-06T09:28:01;99774.16;;;23.51;56.06
21240;BME280;10778;48.962;9.018;2022-07-06T09:30:29;99772.09;;;23.47;57.52
21240;BME280;10778;48.962;9.018;2022-07-06T09:32:57;99778.16;;;22.80;58.50
21240;BME280;10778;48.962;9.018;2022-07-06T09:35:24;99770.97;;;23.00;57.60
21240;BME280;10778;48.962;9.018;2022-07-06T09:40:38;99773.13;;;23.32;56.80
21240;BME280;10778;48.962;9.018;2022-07-06T09:43:18;99779.63;;;22.89;57.86
21240;BME280;10778;48.962;9.018;2022-07-06T09:45:46;99784.81;;;23.11;57.62
21240;BME280;10778;48.962;9.018;2022-07-06T09:48:16;99777.19;;;23.14;56.96
21240;BME280;10778;48.962;9.018;2022-07-06T09:50:49;99775.19;;;23.64;55.71
21240;BME280;10778;48.962;9.018;2022-07-06T09:53:17;99781.19;;;23.46;57.07
21240;BME280;10778;48.962;9.018;2022-07-06T09:55:45;99790.63;;;23.21;58.85
21240;BME280;10778;48.962;9.018;2022-07-06T09:58:11;99800.81;;;22.70;58.19
21240;BME280;10778;48.962;9.018;2022-07-06T10:00:37;99793.38;;;22.66;57.74
21240;BME280;10778;48.962;9.018;2022-07-06T10:03:05;99790.81;;;23.13;57.10
21240;BME280;10778;48.962;9.018;2022-07-06T10:05:33;99782.53;;;22.94;57.22
21240;BME280;10778;48.962;9.018;2022-07-06T10:08:00;99791.19;;;22.96;57.86
21240;BME280;10778;48.962;9.018;2022-07-06T10:10:29;99793.91;;;23.03;57.29
21240;BME280;10778;48.962;9.018;2022-07-06T10:12:59;99788.34;;;23.18;58.57
21240;BME280;10778;48.962;9.018;2022-07-06T10:15:26;99785.91;;;23.50;57.09
21240;BME280;10778;48.962;9.018;2022-07-06T10:17:54;99788.94;;;23.00;57.96
21240;BME280;10778;48.962;9.018;2022-07-06T10:20:21;99790.84;;;23.20;58.24
21240;BME280;10778;48.962;9.018;2022-07-06T10:22:48;99786.34;;;22.65;58.58
21240;BME280;10778;48.962;9.018;2022-07-06T10:25:18;99789.78;;;23.07;58.32
21240;BME280;10778;48.962;9.018;2022-07-06T10:27:46;99802.28;;;22.80;57.31
21240;BME280;10778;48.962;9.018;2022-07-06T10:30:14;99793.97;;;23.50;56.99
21240;BME280;10778;48.962;9.018;2022-07-06T10:32:44;99793.34;;;23.28;55.84
21240;BME280;10778;48.962;9.018;2022-07-06T10:35:10;99795.19;;;22.23;60.48
21240;BME280;10778;48.962;9.018;2022-07-06T10:37:36;99795.59;;;22.55;58.12
21240;BME280;10778;48.962;9.018;2022-07-06T10:40:02;99802.28;;;22.80;57.78
21240;BME280;10778;48.962;9.018;2022-07-06T10:43:02;99785.72;;;23.32;57.40
21240;BME280;10778;48.962;9.018;2022-07-06T10:48:33;99788.34;;;23.05;57.91
21240;BME280;10778;48.962;9.018;2022-07-06T10:50:59;99794.78;;;23.30;57.16
21240;BME280;10778;48.962;9.018;2022-07-06T10:53:28;99783.47;;;23.49;58.12
21240;BME280;10778;48.962;9.018;2022-07-06T10:55:57;99789.22;;;23.66;57.52
21240;BME280;10778;48.962;9.018;2022-07-06T11:01:06;99782.94;;;22.91;58.39
21240;BME280;10778;48.962;9.018;2022-07-06T11:03:37;99790.59;;;23.01;56.47
21240;BME280;10778;48.962;9.018;2022-07-06T11:06:12;99785.66;;;23.18;56.36
21240;BME280;10778;48.962;9.018;2022-07-06T11:08:43;99789.72;;;22.94;56.54
21240;BME280;10778;48.962;9.018;2022-07-06T11:11:56;99779.50;;;23.24;56.89
21240;BME280;10778;48.962;9.018;2022-07-06T11:14:06;99773.13;;;23.52;56.64
21240;BME280;10778;48.962;9.018;2022-07-06T11:19:21;99783.66;;;23.54;55.77
21240;BME280;10778;48.962;9.018;2022-07-06T11:21:53;99783.41;;;23.22;56.05
21240;BME280;10778;48.962;9.018;2022-07-06T11:24:28;99782.53;;;22.94;55.30
21240;BME280;10778;48.962;9.018;2022-07-06T11:26:55;99781.31;;;23.17;54.29
21240;BME280;10778;48.962;9.018;2022-07-06T11:29:23;99776.97;;;23.16;53.13
21240;BME280;10778;48.962;9.018;2022-07-06T11:31:57;99771.03;;;23.68;52.85
21240;BME280;10778;48.962;9.018;2022-07-06T11:34:26;99766.06;;;23.98;54.77
21240;BME280;10778;48.962;9.018;2022-07-06T11:36:56;99773.41;;;22.88;56.00
21240;BME280;10778;48.962;9.018;2022-07-06T11:39:26;99780.34;;;23.38;56.49
21240;BME280;10778;48.962;9.018;2022-07-06T11:41:54;99771.41;;;23.18;54.62
21240;BME280;10778;48.962;9.018;2022-07-06T11:44:20;99770.03;;;23.55;53.63
21240;BME280;10778;48.962;9.018;2022-07-06T11:46:47;99760.03;;;24.10;55.20
21240;BME280;10778;48.962;9.018;2022-07-06T11:49:13;99752.47;;;23.39;54.25
21240;BME280;10778;48.962;9.018;2022-07-06T11:51:40;99767.03;;;22.34;57.29
21240;BME280;10778;48.962;9.018;2022-07-06T11:56:36;99765.47;;;23.36;55.37
21240;BME280;10778;48.962;9.018;2022-07-06T11:59:02;99754.94;;;23.41;54.54
21240;BME280;10778;48.962;9.018;2022-07-06T12:01:29;99752.66;;;23.71;53.33
21240;BME280;10778;48.962;9.018;2022-07-06T12:03:58;99754.47;;;24.05;52.05
21240;BME280;10778;48.962;9.018;2022-07-06T12:06:25;99752.84;;;23.70;53.46
21240;BME280;10778;48.962;9.018;2022-07-06T12:08:54;99759.47;;;23.27;54.31
21240;BME280;10778;48.962;9.018;2022-07-06T12:11:21;99741.44;;;24.15;52.96
21240;BME280;10778;48.962;9.018;2022-07-06T12:13:49;99745.78;;;24.09;53.84
21240;BME280;10778;48.962;9.018;2022-07-06T12:16:16;99749.09;;;24.11;54.01
21240;BME280;10778;48.962;9.018;2022-07-06T12:18:44;99753.25;;;23.94;52.10
21240;BME280;10778;48.962;9.018;2022-07-06T12:21:13;99754.28;;;23.93;52.12
21240;BME280;10778;48.962;9.018;2022-07-06T12:23:47;99743.47;;;24.20;52.08
21240;BME280;10778;48.962;9.018;2022-07-06T12:26:16;99743.53;;;23.86;50.93
21240;BME280;10778;48.962;9.018;2022-07-06T12:28:43;99726.16;;;24.02;52.85
21240;BME280;10778;48.962;9.018;2022-07-06T12:31:10;99746.06;;;23.61;52.43
21240;BME280;10778;48.962;9.018;2022-07-06T12:33:37;99728.09;;;23.54;52.67
21240;BME280;10778;48.962;9.018;2022-07-06T12:36:12;99739.81;;;23.87;51.59
21240;BME280;10778;48.962;9.018;2022-07-06T12:38:44;99748.47;;;23.96;50.79
21240;BME280;10778;48.962;9.018;2022-07-06T12:41:20;99741.09;;;23.30;51.72
21240;BME280;10778;48.962;9.018;2022-07-06T12:43:48;99739.63;;;23.08;51.41
21240;BME280;10778;48.962;9.018;2022-07-06T12:46:33;99733.00;;;23.84;52.58
21240;BME280;10778;48.962;9.018;2022-07-06T12:49:03;99742.31;;;23.75;51.89
21240;BME280;10778;48.962;9.018;2022-07-06T12:52:01;99734.84;;;22.96;51.79
21240;BME280;10778;48.962;9.018;2022-07-06T12:54:31;99728.09;;;23.54;51.88
21240;BME280;10778;48.962;9.018;2022-07-06T12:57:09;99727.84;;;23.83;51.37
21240;BME280;10778;48.962;9.018;2022-07-06T12:59:43;99723.53;;;23.68;51.64
21240;BME280;10778;48.962;9.018;2022-07-06T13:02:18;99732.63;;;23.61;53.05
21240;BME280;10778;48.962;9.018;2022-07-06T13:04:54;99720.59;;;23.83;50.60
21240;BME280;10778;48.962;9.018;2022-07-06T13:07:20;99727.25;;;23.40;51.31
21240;BME280;10778;48.962;9.018;2022-07-06T13:09:46;99727.25;;;23.34;51.84
21240;BME280;10778;48.962;9.018;2022-07-06T13:12:12;99728.88;;;23.89;51.88
21240;BME280;10778;48.962;9.018;2022-07-06T13:14:38;99721.31;;;24.31;49.79
21240;BME280;10778;48.962;9.018;2022-07-06T13:17:04;99720.19;;;24.91;49.26
21240;BME280;10778;48.962;9.018;2022-07-06T13:19:30;99718.63;;;24.70;48.78
21240;BME280;10778;48.962;9.018;2022-07-06T13:21:56;99707.34;;;24.93;48.14